createdAt,value
2019-03-16T00:00:53.892Z,0.00
2019-03-16T00:02:46.803Z,0.00
2019-03-16T00:03:46.813Z,0.00
2019-03-16T00:05:40.223Z,0.00
2019-03-16T00:06:40.233Z,0.00
2019-03-16T00:08:33.638Z,0.00
2019-03-16T00:09:33.725Z,0.00
2019-03-16T00:11:27.059Z,0.00
2019-03-16T00:12:27.060Z,0.00
2019-03-16T00:14:20.456Z,0.00
2019-03-16T00:15:20.462Z,0.00
2019-03-16T00:17:23.372Z,0.00
2019-03-16T00:18:13.879Z,0.00
2019-03-16T00:20:07.289Z,0.00
2019-03-16T00:21:07.308Z,0.00
2019-03-16T00:23:01.684Z,0.00
2019-03-16T00:24:01.697Z,0.00
2019-03-16T00:25:55.098Z,0.00
2019-03-16T00:26:55.106Z,0.00
2019-03-16T00:28:48.510Z,0.00
2019-03-16T00:29:48.517Z,0.00
2019-03-16T00:31:41.940Z,0.00
2019-03-16T00:32:41.925Z,0.00
2019-03-16T00:34:35.332Z,0.00
2019-03-16T00:35:35.339Z,0.00
2019-03-16T00:37:29.734Z,0.00
2019-03-16T00:38:29.745Z,0.00
2019-03-16T00:40:23.143Z,0.00
2019-03-16T00:41:23.154Z,0.00
2019-03-16T00:43:16.552Z,0.00
2019-03-16T00:44:16.564Z,0.00
2019-03-16T00:46:09.963Z,0.00
2019-03-16T00:47:09.974Z,0.00
2019-03-16T00:49:03.370Z,0.00
2019-03-16T00:50:03.378Z,0.00
2019-03-16T00:51:56.779Z,0.00
2019-03-16T00:52:56.784Z,0.00
2019-03-16T00:54:50.193Z,0.00
2019-03-16T00:55:50.194Z,0.00
2019-03-16T00:57:43.607Z,0.00
2019-03-16T00:58:43.616Z,0.00
2019-03-16T01:00:37.023Z,0.00
2019-03-16T01:01:37.029Z,0.00
2019-03-16T01:03:30.443Z,0.00
2019-03-16T01:04:30.448Z,0.00
2019-03-16T01:06:23.856Z,0.00
2019-03-16T01:07:23.857Z,0.00
2019-03-16T01:09:17.265Z,0.00
2019-03-16T01:10:17.274Z,0.00
2019-03-16T01:12:10.675Z,0.00
2019-03-16T01:13:10.679Z,0.00
2019-03-16T01:15:05.085Z,0.00
2019-03-16T01:16:05.085Z,0.00
2019-03-16T01:17:58.481Z,0.00
2019-03-16T01:18:58.491Z,0.00
2019-03-16T01:20:51.889Z,0.00
2019-03-16T01:21:51.898Z,0.00
2019-03-16T01:23:45.304Z,0.00
2019-03-16T01:24:45.313Z,0.00
2019-03-16T01:26:38.717Z,0.00
2019-03-16T01:27:38.724Z,0.00
2019-03-16T01:29:32.114Z,0.00
2019-03-16T01:30:32.127Z,0.00
2019-03-16T01:32:25.575Z,0.00
2019-03-16T01:33:25.536Z,0.00
2019-03-16T01:35:18.940Z,0.00
2019-03-16T01:36:18.953Z,0.00
2019-03-16T01:38:12.339Z,0.00
2019-03-16T01:39:12.351Z,0.00
2019-03-16T01:41:05.760Z,0.00
2019-03-16T01:42:05.761Z,0.00
2019-03-16T01:43:59.166Z,0.00
2019-03-16T01:44:59.175Z,0.00
2019-03-16T01:46:52.583Z,0.00
2019-03-16T01:47:52.579Z,0.00
2019-03-16T01:49:45.987Z,0.00
2019-03-16T01:50:45.997Z,0.00
2019-03-16T01:52:39.399Z,0.00
2019-03-16T01:53:39.408Z,0.00
2019-03-16T01:55:32.813Z,0.00
2019-03-16T01:56:32.819Z,0.00
2019-03-16T01:58:26.210Z,0.00
2019-03-16T01:59:26.226Z,0.00
2019-03-16T02:01:19.630Z,0.00
2019-03-16T02:02:19.632Z,0.00
2019-03-16T02:04:13.027Z,0.00
2019-03-16T02:05:13.039Z,0.00
2019-03-16T02:07:06.464Z,0.00
2019-03-16T02:08:06.438Z,0.00
2019-03-16T02:10:00.845Z,0.00
2019-03-16T02:11:00.852Z,0.00
2019-03-16T02:12:54.276Z,0.00
2019-03-16T02:13:54.263Z,0.00
2019-03-16T02:15:47.662Z,0.00
2019-03-16T02:16:47.672Z,0.00
2019-03-16T02:18:42.068Z,0.00
2019-03-16T02:19:42.097Z,0.00
2019-03-16T02:21:35.523Z,0.00
2019-03-16T02:22:35.491Z,0.00
2019-03-16T02:24:28.891Z,0.00
2019-03-16T02:25:28.893Z,0.00
2019-03-16T02:27:23.301Z,0.00
2019-03-16T02:28:23.318Z,0.00
2019-03-16T02:30:16.711Z,0.00
2019-03-16T02:31:16.730Z,0.00
2019-03-16T02:33:13.171Z,0.00
2019-03-16T02:34:09.772Z,0.00
2019-03-16T02:36:03.177Z,0.00
2019-03-16T02:37:03.180Z,0.00
2019-03-16T02:38:56.576Z,0.00
2019-03-16T02:39:56.594Z,0.00
2019-03-16T02:41:49.992Z,0.00
2019-03-16T02:42:49.993Z,0.00
2019-03-16T02:44:43.392Z,0.00
2019-03-16T02:45:43.405Z,0.00
2019-03-16T02:47:36.810Z,0.00
2019-03-16T02:48:36.823Z,0.00
2019-03-16T02:50:30.228Z,0.00
2019-03-16T02:51:30.230Z,0.00
2019-03-16T02:53:23.623Z,0.00
2019-03-16T02:54:23.632Z,0.00
2019-03-16T02:56:17.035Z,0.00
2019-03-16T02:57:17.182Z,0.00
2019-03-16T02:59:10.443Z,0.00
2019-03-16T03:00:10.446Z,0.00
2019-03-16T03:02:03.853Z,0.00
2019-03-16T03:03:03.858Z,0.00
2019-03-16T03:04:57.265Z,0.00
2019-03-16T03:05:57.263Z,0.00
2019-03-16T03:07:50.670Z,0.00
2019-03-16T03:08:50.677Z,0.00
2019-03-16T03:10:44.080Z,0.00
2019-03-16T03:11:44.081Z,0.00
2019-03-16T03:13:37.495Z,0.00
2019-03-16T03:14:37.486Z,0.00
2019-03-16T03:16:30.895Z,0.00
2019-03-16T03:17:30.896Z,0.00
2019-03-16T03:19:24.296Z,0.00
2019-03-16T03:20:24.305Z,0.00
2019-03-16T03:22:17.711Z,0.00
2019-03-16T03:23:17.712Z,0.00
2019-03-16T03:25:11.111Z,0.00
2019-03-16T03:26:11.119Z,0.00
2019-03-16T03:28:04.530Z,0.00
2019-03-16T03:29:04.527Z,0.00
2019-03-16T03:30:57.959Z,0.00
2019-03-16T03:31:57.935Z,0.00
2019-03-16T03:34:00.197Z,0.00
2019-03-16T03:34:51.355Z,0.00
2019-03-16T03:36:44.765Z,0.00
2019-03-16T03:37:44.749Z,0.00
2019-03-16T03:39:38.150Z,0.00
2019-03-16T03:40:38.161Z,0.00
2019-03-16T03:42:31.569Z,0.00
2019-03-16T03:43:31.567Z,0.00
2019-03-16T03:45:24.967Z,0.00
2019-03-16T03:46:24.974Z,0.00
2019-03-16T03:48:18.386Z,0.00
2019-03-16T03:49:18.395Z,0.00
2019-03-16T03:51:11.789Z,0.00
2019-03-16T03:52:11.795Z,0.00
2019-03-16T03:54:05.188Z,0.00
2019-03-16T03:55:05.203Z,0.00
2019-03-16T03:56:58.630Z,0.00
2019-03-16T03:57:58.613Z,0.00
2019-03-16T03:59:52.023Z,0.00
2019-03-16T04:00:52.025Z,0.00
2019-03-16T04:02:45.426Z,0.00
2019-03-16T04:03:45.435Z,0.00
2019-03-16T04:05:38.832Z,0.00
2019-03-16T04:06:38.839Z,0.00
2019-03-16T04:08:32.243Z,0.00
2019-03-16T04:09:32.249Z,0.00
2019-03-16T04:11:25.652Z,0.00
2019-03-16T04:12:25.658Z,0.00
2019-03-16T04:14:19.065Z,0.00
2019-03-16T04:15:19.063Z,0.00
2019-03-16T04:17:12.474Z,0.00
2019-03-16T04:18:12.476Z,0.00
2019-03-16T04:20:06.885Z,0.00
2019-03-16T04:21:06.878Z,0.00
2019-03-16T04:23:01.290Z,0.00
2019-03-16T04:24:01.292Z,0.00
2019-03-16T04:25:54.684Z,0.00
2019-03-16T04:26:54.700Z,0.00
2019-03-16T04:28:48.119Z,0.00
2019-03-16T04:29:48.121Z,0.00
2019-03-16T04:31:41.518Z,0.00
2019-03-16T04:32:41.525Z,0.00
2019-03-16T04:34:34.921Z,0.00
2019-03-16T04:35:34.932Z,0.00
2019-03-16T04:37:28.334Z,0.00
2019-03-16T04:38:28.424Z,0.00
2019-03-16T04:40:21.740Z,0.00
2019-03-16T04:41:21.759Z,0.00
2019-03-16T04:43:15.152Z,0.00
2019-03-16T04:44:15.158Z,0.00
2019-03-16T04:46:08.552Z,0.00
2019-03-16T04:47:08.562Z,0.00
2019-03-16T04:49:01.966Z,0.00
2019-03-16T04:50:01.971Z,0.00
2019-03-16T04:51:55.399Z,0.00
2019-03-16T04:52:55.397Z,0.00
2019-03-16T04:54:48.773Z,0.00
2019-03-16T04:55:48.782Z,0.00
2019-03-16T04:57:42.195Z,0.00
2019-03-16T04:58:42.192Z,0.00
2019-03-16T05:00:35.583Z,0.00
2019-03-16T05:01:35.596Z,0.00
2019-03-16T05:03:29.008Z,0.00
2019-03-16T05:04:41.667Z,0.00
2019-03-16T05:06:22.407Z,0.00
2019-03-16T05:07:22.410Z,0.00
2019-03-16T05:09:15.319Z,0.00
2019-03-16T05:10:15.321Z,0.00
2019-03-16T05:12:09.218Z,0.00
2019-03-16T05:13:09.221Z,0.00
2019-03-16T05:15:02.618Z,0.00
2019-03-16T05:16:02.630Z,0.00
2019-03-16T05:17:56.036Z,0.00
2019-03-16T05:18:56.102Z,0.00
2019-03-16T05:20:49.084Z,4.00
2019-03-16T05:21:49.087Z,0.00
2019-03-16T05:23:42.498Z,8.00
2019-03-16T05:24:42.492Z,4.00
2019-03-16T05:26:35.901Z,8.00
2019-03-16T05:27:35.902Z,8.00
2019-03-16T05:29:29.304Z,8.00
2019-03-16T05:30:29.332Z,8.00
2019-03-16T05:32:22.718Z,8.00
2019-03-16T05:33:22.718Z,12.00
2019-03-16T05:35:16.113Z,16.00
2019-03-16T05:36:16.124Z,24.00
2019-03-16T05:38:09.530Z,24.00
2019-03-16T05:39:09.535Z,24.00
2019-03-16T05:41:02.936Z,32.00
2019-03-16T05:42:05.280Z,48.00
2019-03-16T05:43:56.343Z,60.00
2019-03-16T05:44:56.351Z,60.00
2019-03-16T05:46:49.741Z,48.00
2019-03-16T05:47:49.751Z,64.00
2019-03-16T05:49:42.669Z,88.00
2019-03-16T05:50:42.672Z,76.00
2019-03-16T05:52:36.085Z,76.00
2019-03-16T05:53:36.081Z,84.00
2019-03-16T05:55:29.476Z,120.00
2019-03-16T05:56:29.491Z,140.00
2019-03-16T05:58:22.891Z,184.00
2019-03-16T05:59:22.893Z,200.00
2019-03-16T06:01:16.288Z,236.00
2019-03-16T06:02:16.301Z,252.00
2019-03-16T06:04:09.703Z,304.00
2019-03-16T06:05:11.234Z,320.00
2019-03-16T06:07:03.123Z,332.00
2019-03-16T06:08:03.115Z,336.00
2019-03-16T06:09:56.519Z,372.00
2019-03-16T06:10:56.536Z,384.00
2019-03-16T06:12:49.425Z,420.00
2019-03-16T06:13:49.428Z,420.00
2019-03-16T06:15:42.827Z,408.00
2019-03-16T06:16:42.837Z,404.00
2019-03-16T06:18:36.252Z,416.00
2019-03-16T06:19:36.264Z,436.00
2019-03-16T06:21:29.641Z,440.00
2019-03-16T06:22:29.656Z,416.00
2019-03-16T06:24:23.056Z,404.00
2019-03-16T06:25:23.055Z,408.00
2019-03-16T06:27:16.460Z,444.00
2019-03-16T06:28:16.462Z,476.00
2019-03-16T06:30:09.864Z,556.00
2019-03-16T06:31:09.871Z,584.00
2019-03-16T06:33:03.276Z,580.00
2019-03-16T06:34:03.279Z,580.00
2019-03-16T06:35:56.667Z,588.00
2019-03-16T06:36:56.685Z,600.00
2019-03-16T06:38:49.593Z,660.00
2019-03-16T06:39:49.593Z,668.00
2019-03-16T06:41:43.557Z,680.00
2019-03-16T06:42:43.002Z,692.00
2019-03-16T06:44:36.406Z,708.00
2019-03-16T06:45:36.417Z,728.00
2019-03-16T06:47:29.811Z,752.00
2019-03-16T06:48:29.817Z,728.00
2019-03-16T06:50:23.218Z,744.00
2019-03-16T06:51:23.222Z,744.00
2019-03-16T06:53:19.526Z,788.00
2019-03-16T06:54:16.626Z,852.00
2019-03-16T06:56:10.029Z,1016.00
2019-03-16T06:57:10.048Z,1084.00
2019-03-16T06:59:03.433Z,1132.00
2019-03-16T07:00:03.446Z,1184.00
2019-03-16T07:01:56.839Z,1228.00
2019-03-16T07:02:56.847Z,1232.00
2019-03-16T07:04:50.250Z,1252.00
2019-03-16T07:05:50.255Z,1336.00
2019-03-16T07:07:43.155Z,1500.00
2019-03-16T07:08:43.163Z,1616.00
2019-03-16T07:10:36.563Z,1824.00
2019-03-16T07:11:36.568Z,1920.00
2019-03-16T07:13:29.970Z,2028.00
2019-03-16T07:14:29.992Z,2364.00
2019-03-16T07:16:23.377Z,3072.00
2019-03-16T07:17:23.384Z,2952.00
2019-03-16T07:19:16.786Z,2156.00
2019-03-16T07:20:16.792Z,1876.00
2019-03-16T07:22:10.199Z,1876.00
2019-03-16T07:23:10.254Z,1992.00
2019-03-16T07:25:03.608Z,2276.00
2019-03-16T07:26:14.079Z,2472.00
2019-03-16T07:27:57.141Z,2704.00
2019-03-16T07:28:57.024Z,2784.00
2019-03-16T07:30:50.476Z,2980.00
2019-03-16T07:31:50.432Z,3024.00
2019-03-16T07:33:43.848Z,2824.00
2019-03-16T07:34:43.838Z,2488.00
2019-03-16T07:36:37.234Z,2156.00
2019-03-16T07:37:37.245Z,2156.00
2019-03-16T07:39:30.666Z,1844.00
2019-03-16T07:40:30.657Z,1996.00
2019-03-16T07:42:24.050Z,2240.00
2019-03-16T07:43:24.064Z,2228.00
2019-03-16T07:45:17.465Z,2520.00
2019-03-16T07:46:17.467Z,2160.00
2019-03-16T07:48:10.868Z,2048.00
2019-03-16T07:49:10.879Z,1976.00
2019-03-16T07:51:04.287Z,1620.00
2019-03-16T07:52:04.286Z,1644.00
2019-03-16T07:53:57.688Z,1392.00
2019-03-16T07:54:57.697Z,1448.00
2019-03-16T07:56:51.091Z,1564.00
2019-03-16T07:57:51.102Z,1460.00
2019-03-16T07:59:44.509Z,1260.00
2019-03-16T08:00:44.506Z,1088.00
2019-03-16T08:02:37.900Z,1016.00
2019-03-16T08:03:37.914Z,1016.00
2019-03-16T08:05:31.317Z,1084.00
2019-03-16T08:06:33.381Z,1160.00
2019-03-16T08:08:24.735Z,1164.00
2019-03-16T08:09:24.736Z,1184.00
2019-03-16T08:11:17.640Z,1332.00
2019-03-16T08:12:17.638Z,1272.00
2019-03-16T08:14:11.036Z,1236.00
2019-03-16T08:15:11.162Z,1380.00
2019-03-16T08:17:04.460Z,1628.00
2019-03-16T08:18:07.662Z,1816.00
2019-03-16T08:19:57.860Z,1864.00
2019-03-16T08:20:57.860Z,1816.00
2019-03-16T08:22:50.761Z,1752.00
2019-03-16T08:23:53.673Z,1888.00
2019-03-16T08:25:43.680Z,1828.00
2019-03-16T08:26:43.681Z,1964.00
2019-03-16T08:28:37.080Z,2436.00
2019-03-16T08:29:37.089Z,2164.00
2019-03-16T08:31:29.997Z,2076.00
2019-03-16T08:32:30.002Z,2064.00
2019-03-16T08:34:23.403Z,2036.00
2019-03-16T08:35:23.411Z,2012.00
2019-03-16T08:37:16.308Z,2108.00
2019-03-16T08:38:16.319Z,2212.00
2019-03-16T08:40:09.734Z,1900.00
2019-03-16T08:41:09.727Z,2028.00
2019-03-16T08:43:03.141Z,2436.00
2019-03-16T08:44:03.145Z,2376.00
2019-03-16T08:45:56.049Z,2084.00
2019-03-16T08:46:56.046Z,1776.00
2019-03-16T08:48:48.943Z,2344.00
2019-03-16T08:49:48.961Z,2496.00
2019-03-16T08:51:42.355Z,2228.00
2019-03-16T08:52:42.361Z,2144.00
2019-03-16T08:54:35.763Z,2028.00
2019-03-16T08:55:35.768Z,1928.00
2019-03-16T08:57:29.182Z,1732.00
2019-03-16T08:58:29.195Z,1912.00
2019-03-16T09:00:22.594Z,2028.00
2019-03-16T09:01:22.599Z,2124.00
2019-03-16T09:03:15.505Z,2312.00
2019-03-16T09:04:15.516Z,2112.00
2019-03-16T09:06:08.421Z,2208.00
2019-03-16T09:07:08.447Z,2172.00
2019-03-16T09:09:01.820Z,2104.00
2019-03-16T09:10:01.840Z,2216.00
2019-03-16T09:11:54.739Z,2380.00
2019-03-16T09:12:55.536Z,2612.00
2019-03-16T09:14:48.151Z,2600.00
2019-03-16T09:15:48.158Z,2344.00
2019-03-16T09:17:41.552Z,2152.00
2019-03-16T09:18:41.567Z,2328.00
2019-03-16T09:20:34.473Z,2184.00
2019-03-16T09:21:34.478Z,2156.00
2019-03-16T09:23:27.377Z,2140.00
2019-03-16T09:24:27.390Z,2200.00
2019-03-16T09:26:20.344Z,2224.00
2019-03-16T09:27:30.532Z,2200.00
2019-03-16T09:29:15.123Z,2040.00
2019-03-16T09:30:13.211Z,2376.00
2019-03-16T09:32:06.126Z,2348.00
2019-03-16T09:33:06.145Z,2392.00
2019-03-16T09:34:59.246Z,2580.00
2019-03-16T09:35:59.886Z,2480.00
2019-03-16T09:37:52.116Z,2284.00
2019-03-16T09:38:52.127Z,2456.00
2019-03-16T09:40:45.119Z,2596.00
2019-03-16T09:41:45.038Z,2524.00
2019-03-16T09:43:37.978Z,2172.00
2019-03-16T09:44:37.980Z,2352.00
2019-03-16T09:46:30.890Z,2420.00
2019-03-16T09:47:30.896Z,2644.00
2019-03-16T09:49:23.857Z,2840.00
2019-03-16T09:50:23.843Z,2524.00
2019-03-16T09:52:17.280Z,3388.00
2019-03-16T09:53:17.268Z,3736.00
2019-03-16T09:55:10.245Z,3192.00
2019-03-16T09:56:10.221Z,3232.00
2019-03-16T09:58:03.241Z,3560.00
2019-03-16T09:59:03.123Z,3292.00
2019-03-16T10:00:56.048Z,3464.00
2019-03-16T10:01:56.047Z,5104.00
2019-03-16T10:03:49.062Z,4280.00
2019-03-16T10:04:48.955Z,3680.00
2019-03-16T10:06:42.727Z,3800.00
2019-03-16T10:07:42.724Z,2904.00
2019-03-16T10:09:35.762Z,3616.00
2019-03-16T10:10:35.664Z,3496.00
2019-03-16T10:12:28.569Z,4068.00
2019-03-16T10:13:28.614Z,4816.00
2019-03-16T10:15:21.519Z,5532.00
2019-03-16T10:16:21.497Z,5736.00
2019-03-16T10:18:15.358Z,5160.00
2019-03-16T10:19:14.660Z,3640.00
2019-03-16T10:21:08.742Z,4276.00
2019-03-16T10:22:07.492Z,4204.00
2019-03-16T10:24:00.905Z,4988.00
2019-03-16T10:25:00.427Z,4956.00
2019-03-16T10:26:53.316Z,5692.00
2019-03-16T10:27:53.322Z,4812.00
2019-03-16T10:29:47.690Z,5652.00
2019-03-16T10:30:47.685Z,5300.00
2019-03-16T10:32:40.813Z,8012.00
2019-03-16T10:33:41.270Z,7504.00
2019-03-16T10:35:35.090Z,6648.00
2019-03-16T10:36:34.250Z,6516.00
2019-03-16T10:38:27.008Z,6968.00
2019-03-16T10:39:26.981Z,8156.00
2019-03-16T10:41:19.891Z,5296.00
2019-03-16T10:42:19.993Z,4348.00
2019-03-16T10:44:12.839Z,3928.00
2019-03-16T10:45:12.836Z,2988.00
2019-03-16T10:47:06.272Z,3012.00
2019-03-16T10:48:06.256Z,3800.00
2019-03-16T10:49:59.162Z,3608.00
2019-03-16T10:50:59.170Z,2864.00
2019-03-16T10:52:52.079Z,3580.00
2019-03-16T10:53:52.086Z,4128.00
2019-03-16T10:55:44.998Z,3432.00
2019-03-16T10:56:45.001Z,4912.00
2019-03-16T10:58:37.900Z,4084.00
2019-03-16T10:59:37.916Z,3888.00
2019-03-16T11:01:30.835Z,3728.00
2019-03-16T11:02:31.533Z,2844.00
2019-03-16T11:04:25.557Z,2964.00
2019-03-16T11:05:25.372Z,3136.00
2019-03-16T11:07:18.291Z,2776.00
2019-03-16T11:08:18.281Z,2864.00
2019-03-16T11:10:11.185Z,3144.00
2019-03-16T11:11:11.198Z,3324.00
2019-03-16T11:13:04.797Z,3172.00
2019-03-16T11:14:04.606Z,2812.00
2019-03-16T11:15:57.516Z,2680.00
2019-03-16T11:16:57.524Z,3992.00
2019-03-16T11:18:50.427Z,3740.00
2019-03-16T11:19:50.446Z,3696.00
2019-03-16T11:21:43.354Z,3360.00
2019-03-16T11:22:43.359Z,2900.00
2019-03-16T11:24:36.286Z,3252.00
2019-03-16T11:25:36.283Z,3040.00
2019-03-16T11:27:29.189Z,3044.00
2019-03-16T11:28:29.191Z,3364.00
2019-03-16T11:30:22.094Z,3388.00
2019-03-16T11:31:22.108Z,2604.00
2019-03-16T11:33:15.530Z,2464.00
2019-03-16T11:34:15.533Z,3184.00
2019-03-16T11:36:08.442Z,2692.00
2019-03-16T11:37:08.451Z,2256.00
2019-03-16T11:39:01.359Z,2612.00
2019-03-16T11:40:01.375Z,2464.00
2019-03-16T11:41:54.284Z,2844.00
2019-03-16T11:42:54.286Z,2852.00
2019-03-16T11:44:47.188Z,2968.00
2019-03-16T11:45:47.202Z,3424.00
2019-03-16T11:47:40.119Z,2916.00
2019-03-16T11:48:40.117Z,3160.00
2019-03-16T11:50:33.019Z,2988.00
2019-03-16T11:51:33.033Z,2920.00
2019-03-16T11:53:25.943Z,3644.00
2019-03-16T11:54:25.948Z,3128.00
2019-03-16T11:56:18.876Z,2908.00
2019-03-16T11:57:18.880Z,3052.00
2019-03-16T11:59:21.210Z,2824.00
2019-03-16T12:00:12.297Z,3264.00
2019-03-16T12:02:05.798Z,2296.00
2019-03-16T12:03:05.206Z,2392.00
2019-03-16T12:04:58.110Z,2316.00
2019-03-16T12:05:58.121Z,3176.00
2019-03-16T12:07:51.029Z,3840.00
2019-03-16T12:08:51.036Z,3020.00
2019-03-16T12:10:43.939Z,2752.00
2019-03-16T12:11:43.950Z,2692.00
2019-03-16T12:13:36.862Z,4812.00
2019-03-16T12:14:36.870Z,5188.00
2019-03-16T12:16:29.783Z,6964.00
2019-03-16T12:17:29.790Z,7708.00
2019-03-16T12:19:22.694Z,6736.00
2019-03-16T12:20:22.705Z,6128.00
2019-03-16T12:22:15.621Z,4716.00
2019-03-16T12:23:15.626Z,5816.00
2019-03-16T12:25:08.556Z,6604.00
2019-03-16T12:26:08.542Z,7744.00
2019-03-16T12:28:01.461Z,6388.00
2019-03-16T12:29:01.459Z,5928.00
2019-03-16T12:30:54.418Z,4908.00
2019-03-16T12:31:54.383Z,5716.00
2019-03-16T12:33:47.296Z,6000.00
2019-03-16T12:34:47.300Z,5100.00
2019-03-16T12:36:40.210Z,4952.00
2019-03-16T12:37:40.212Z,3524.00
2019-03-16T12:39:35.542Z,3636.00
2019-03-16T12:40:33.135Z,3808.00
2019-03-16T12:42:26.046Z,4224.00
2019-03-16T12:43:26.052Z,4764.00
2019-03-16T12:45:20.536Z,4296.00
2019-03-16T12:46:18.970Z,3328.00
2019-03-16T12:48:11.883Z,3576.00
2019-03-16T12:49:11.891Z,3372.00
2019-03-16T12:51:04.858Z,2788.00
2019-03-16T12:52:04.913Z,2620.00
2019-03-16T12:53:57.780Z,2320.00
2019-03-16T12:54:57.790Z,2152.00
2019-03-16T12:56:50.726Z,2064.00
2019-03-16T12:57:50.742Z,2140.00
2019-03-16T12:59:47.219Z,2332.00
2019-03-16T13:00:44.141Z,2688.00
2019-03-16T13:02:37.060Z,2928.00
2019-03-16T13:03:37.059Z,2616.00
2019-03-16T13:05:29.984Z,3400.00
2019-03-16T13:06:30.009Z,2840.00
2019-03-16T13:08:23.124Z,2532.00
2019-03-16T13:09:23.137Z,2876.00
2019-03-16T13:11:16.037Z,2892.00
2019-03-16T13:12:16.047Z,2836.00
2019-03-16T13:14:08.959Z,3344.00
2019-03-16T13:15:08.968Z,3656.00
2019-03-16T13:17:02.373Z,3080.00
2019-03-16T13:18:02.392Z,3028.00
2019-03-16T13:19:55.284Z,3000.00
2019-03-16T13:20:55.308Z,2804.00
2019-03-16T13:22:48.205Z,2772.00
2019-03-16T13:23:48.212Z,2832.00
2019-03-16T13:25:41.116Z,3732.00
2019-03-16T13:26:41.128Z,2872.00
2019-03-16T13:28:35.734Z,3104.00
2019-03-16T13:29:34.541Z,3684.00
2019-03-16T13:31:27.442Z,3968.00
2019-03-16T13:32:27.455Z,4140.00
2019-03-16T13:34:20.870Z,5384.00
2019-03-16T13:35:20.877Z,5504.00
2019-03-16T13:37:13.787Z,5464.00
2019-03-16T13:38:13.791Z,5964.00
2019-03-16T13:40:06.695Z,5440.00
2019-03-16T13:41:06.709Z,4844.00
2019-03-16T13:42:59.628Z,4808.00
2019-03-16T13:43:59.626Z,5080.00
2019-03-16T13:45:52.528Z,4432.00
2019-03-16T13:46:52.547Z,5164.00
2019-03-16T13:48:45.454Z,4928.00
2019-03-16T13:49:45.459Z,4692.00
2019-03-16T13:51:38.413Z,4532.00
2019-03-16T13:52:38.378Z,4128.00
2019-03-16T13:54:31.289Z,5612.00
2019-03-16T13:55:31.295Z,4224.00
2019-03-16T13:57:24.222Z,3528.00
2019-03-16T13:58:24.225Z,3328.00
2019-03-16T14:00:17.134Z,2328.00
2019-03-16T14:01:17.140Z,2224.00
2019-03-16T14:03:10.083Z,2216.00
2019-03-16T14:04:10.126Z,2208.00
2019-03-16T14:06:02.965Z,2628.00
2019-03-16T14:07:03.052Z,3124.00
2019-03-16T14:08:55.914Z,2956.00
2019-03-16T14:09:55.914Z,2316.00
2019-03-16T14:11:48.875Z,1704.00
2019-03-16T14:12:48.847Z,1496.00
2019-03-16T14:14:41.759Z,1516.00
2019-03-16T14:15:41.763Z,1468.00
2019-03-16T14:17:34.675Z,1528.00
2019-03-16T14:18:34.681Z,1152.00
2019-03-16T14:20:27.680Z,1052.00
2019-03-16T14:21:27.621Z,1084.00
2019-03-16T14:23:20.535Z,1152.00
2019-03-16T14:24:20.540Z,1256.00
2019-03-16T14:26:13.454Z,1384.00
2019-03-16T14:27:13.463Z,1184.00
2019-03-16T14:29:06.376Z,1040.00
2019-03-16T14:30:06.379Z,1020.00
2019-03-16T14:31:59.281Z,1264.00
2019-03-16T14:32:59.304Z,1076.00
2019-03-16T14:34:52.375Z,1264.00
2019-03-16T14:35:52.209Z,1396.00
2019-03-16T14:37:45.124Z,1248.00
2019-03-16T14:38:45.128Z,1040.00
2019-03-16T14:40:38.049Z,1364.00
2019-03-16T14:41:38.041Z,1532.00
2019-03-16T14:43:30.956Z,1480.00
2019-03-16T14:44:30.959Z,1636.00
2019-03-16T14:46:24.893Z,1892.00
2019-03-16T14:47:24.905Z,1500.00
2019-03-16T14:49:17.820Z,1084.00
2019-03-16T14:50:17.925Z,1184.00
2019-03-16T14:52:10.824Z,1128.00
2019-03-16T14:53:10.778Z,1200.00
2019-03-16T14:55:03.707Z,1052.00
2019-03-16T14:56:03.712Z,1124.00
2019-03-16T14:57:56.622Z,1176.00
2019-03-16T14:58:56.704Z,1204.00
2019-03-16T15:00:49.591Z,2232.00
2019-03-16T15:01:49.550Z,1844.00
2019-03-16T15:03:42.464Z,1704.00
2019-03-16T15:04:42.479Z,2492.00
2019-03-16T15:06:35.374Z,2476.00
2019-03-16T15:07:35.383Z,2516.00
2019-03-16T15:09:28.296Z,2416.00
2019-03-16T15:10:28.303Z,2484.00
2019-03-16T15:12:21.204Z,2532.00
2019-03-16T15:13:21.217Z,2408.00
2019-03-16T15:15:14.127Z,2512.00
2019-03-16T15:16:14.133Z,1944.00
2019-03-16T15:18:07.043Z,1488.00
2019-03-16T15:19:07.049Z,1936.00
2019-03-16T15:20:59.960Z,1984.00
2019-03-16T15:21:59.965Z,2048.00
2019-03-16T15:23:52.878Z,1868.00
2019-03-16T15:24:52.883Z,2724.00
2019-03-16T15:26:45.794Z,3208.00
2019-03-16T15:27:45.802Z,2968.00
2019-03-16T15:29:38.712Z,3284.00
2019-03-16T15:30:50.240Z,3284.00
2019-03-16T15:32:31.623Z,3728.00
2019-03-16T15:33:31.632Z,3024.00
2019-03-16T15:35:24.560Z,2452.00
2019-03-16T15:36:24.562Z,3280.00
2019-03-16T15:38:17.468Z,2700.00
2019-03-16T15:39:17.475Z,2680.00
2019-03-16T15:41:11.410Z,2744.00
2019-03-16T15:42:11.416Z,3028.00
2019-03-16T15:44:04.357Z,2924.00
2019-03-16T15:45:04.341Z,2756.00
2019-03-16T15:46:57.328Z,3704.00
2019-03-16T15:47:57.277Z,3008.00
2019-03-16T15:49:50.171Z,3440.00
2019-03-16T15:50:50.179Z,2972.00
2019-03-16T15:52:43.081Z,2964.00
2019-03-16T15:53:43.094Z,2976.00
2019-03-16T15:55:36.004Z,2528.00
2019-03-16T15:56:36.011Z,2644.00
2019-03-16T15:58:29.013Z,2000.00
2019-03-16T15:59:28.928Z,1836.00
2019-03-16T16:01:22.330Z,1384.00
2019-03-16T16:02:22.355Z,1020.00
2019-03-16T16:04:15.253Z,932.00
2019-03-16T16:05:15.266Z,1020.00
2019-03-16T16:07:08.206Z,1124.00
2019-03-16T16:08:08.199Z,936.00
2019-03-16T16:10:01.628Z,1680.00
2019-03-16T16:11:01.634Z,1724.00
2019-03-16T16:12:54.550Z,1376.00
2019-03-16T16:13:54.565Z,1888.00
2019-03-16T16:15:47.488Z,1972.00
2019-03-16T16:16:47.474Z,1496.00
2019-03-16T16:18:40.391Z,1176.00
2019-03-16T16:19:40.393Z,988.00
2019-03-16T16:21:33.297Z,1584.00
2019-03-16T16:22:33.311Z,1504.00
2019-03-16T16:24:26.221Z,1904.00
2019-03-16T16:25:26.229Z,2124.00
2019-03-16T16:27:19.133Z,1448.00
2019-03-16T16:28:19.146Z,1080.00
2019-03-16T16:30:12.077Z,1120.00
2019-03-16T16:31:16.533Z,996.00
2019-03-16T16:33:04.984Z,1364.00
2019-03-16T16:34:04.979Z,1612.00
2019-03-16T16:35:57.891Z,1464.00
2019-03-16T16:36:57.896Z,1448.00
2019-03-16T16:38:50.807Z,1392.00
2019-03-16T16:39:50.814Z,1148.00
2019-03-16T16:41:43.717Z,1352.00
2019-03-16T16:42:43.729Z,1484.00
2019-03-16T16:44:36.672Z,1160.00
2019-03-16T16:45:36.679Z,948.00
2019-03-16T16:47:29.604Z,756.00
2019-03-16T16:48:29.599Z,876.00
2019-03-16T16:50:23.002Z,1044.00
2019-03-16T16:51:23.009Z,952.00
2019-03-16T16:53:15.919Z,932.00
2019-03-16T16:54:15.933Z,980.00
2019-03-16T16:56:08.884Z,892.00
2019-03-16T16:57:08.871Z,720.00
2019-03-16T16:59:01.783Z,980.00
2019-03-16T17:00:01.790Z,912.00
2019-03-16T17:01:54.696Z,784.00
2019-03-16T17:02:54.707Z,820.00
2019-03-16T17:04:47.617Z,696.00
2019-03-16T17:05:47.630Z,708.00
2019-03-16T17:07:40.528Z,652.00
2019-03-16T17:08:40.541Z,588.00
2019-03-16T17:10:33.450Z,552.00
2019-03-16T17:11:33.459Z,428.00
2019-03-16T17:13:26.367Z,392.00
2019-03-16T17:14:26.382Z,324.00
2019-03-16T17:16:19.292Z,288.00
2019-03-16T17:17:19.297Z,240.00
2019-03-16T17:19:12.704Z,212.00
2019-03-16T17:20:12.708Z,172.00
2019-03-16T17:22:05.613Z,172.00
2019-03-16T17:23:05.625Z,164.00
2019-03-16T17:24:58.534Z,128.00
2019-03-16T17:25:58.540Z,136.00
2019-03-16T17:27:54.199Z,108.00
2019-03-16T17:28:51.456Z,112.00
2019-03-16T17:30:44.366Z,76.00
2019-03-16T17:31:44.375Z,76.00
2019-03-16T17:33:37.277Z,72.00
2019-03-16T17:34:37.296Z,44.00
2019-03-16T17:36:30.230Z,32.00
2019-03-16T17:37:30.243Z,24.00
2019-03-16T17:39:23.151Z,32.00
2019-03-16T17:40:23.230Z,20.00
2019-03-16T17:42:16.088Z,16.00
2019-03-16T17:43:16.073Z,16.00
2019-03-16T17:45:08.993Z,8.00
2019-03-16T17:46:08.992Z,8.00
2019-03-16T17:48:01.905Z,8.00
2019-03-16T17:49:01.928Z,4.00
2019-03-16T17:50:56.214Z,8.00
2019-03-16T17:51:58.124Z,8.00
2019-03-16T17:53:49.164Z,4.00
2019-03-16T17:54:49.174Z,4.00
2019-03-16T17:56:42.088Z,0.00
2019-03-16T17:57:45.007Z,0.00
2019-03-16T17:59:35.016Z,0.00
2019-03-16T18:00:35.008Z,0.00
2019-03-16T18:02:27.911Z,0.00
2019-03-16T18:03:27.927Z,0.00
2019-03-16T18:05:20.839Z,0.00